Time;durP1;ratioP1;P1;durP2;ratioP2;P2;SDS_P1;SDS_P2;PMS_P1;PMS_P2;Temp;Humidity;BMP_temperature;BMP_pressure;BME280_temperature;BME280_humidity;BME280_pressure;Samples;Min_cycle;Max_cycle;Signal;HPM_P1;HPM_P2
2021/09/16 00:00:42;;;;;;;12.57;11.37;;;18.50;99.90;;;;;;6196737;28;20201;-80
2021/09/16 00:03:45;;;;;;;12.57;11.27;;;18.50;99.90;;;;;;6196950;28;20594;-79
2021/09/16 00:06:47;;;;;;;15.83;11.77;;;18.70;99.90;;;;;;6197011;28;20712;-79
2021/09/16 00:09:50;;;;;;;11.73;10.63;;;18.70;99.90;;;;;;6196604;28;20671;-80
2021/09/16 00:12:53;;;;;;;12.07;10.87;;;18.80;99.90;;;;;;6213116;28;20693;-80
2021/09/16 00:15:57;;;;;;;11.03;9.93;;;18.80;99.90;;;;;;6202082;28;20320;-80
2021/09/16 00:18:59;;;;;;;11.53;10.53;;;18.90;99.90;;;;;;6196803;28;20205;-80
2021/09/16 00:22:01;;;;;;;12.13;11.00;;;18.90;99.90;;;;;;6196527;28;20197;-80
2021/09/16 00:25:05;;;;;;;12.20;10.87;;;19.00;99.90;;;;;;6196565;28;20320;-80
2021/09/16 00:28:07;;;;;;;12.77;11.47;;;19.00;99.90;;;;;;6172219;28;20205;-80
2021/09/16 00:31:10;;;;;;;11.33;10.33;;;19.00;99.90;;;;;;6195340;28;20217;-80
2021/09/16 00:34:12;;;;;;;11.00;9.90;;;19.00;99.90;;;;;;6197786;28;20561;-80
2021/09/16 00:37:15;;;;;;;10.60;9.60;;;19.00;99.90;;;;;;6196162;28;20213;-80
2021/09/16 00:40:18;;;;;;;11.53;10.53;;;19.10;99.90;;;;;;6215353;28;20240;-80
2021/09/16 00:43:21;;;;;;;10.90;9.90;;;19.10;99.90;;;;;;6220765;28;20201;-80
2021/09/16 00:46:23;;;;;;;11.27;9.67;;;19.00;99.90;;;;;;6205798;28;20193;-79
2021/09/16 00:49:26;;;;;;;12.20;10.90;;;19.00;99.90;;;;;;6204267;28;20256;-80
2021/09/16 00:52:29;;;;;;;13.07;11.77;;;19.00;99.90;;;;;;6209455;28;20664;-80
2021/09/16 00:55:34;;;;;;;14.20;11.27;;;19.00;99.90;;;;;;6203922;28;20205;-80
2021/09/16 00:58:41;;;;;;;12.57;11.47;;;19.00;99.90;;;;;;6220504;28;20560;-80
2021/09/16 01:01:43;;;;;;;11.47;10.37;;;19.10;99.90;;;;;;6204439;28;20256;-80
2021/09/16 01:04:46;;;;;;;12.47;10.97;;;19.10;99.90;;;;;;6205471;28;20601;-80
2021/09/16 01:07:48;;;;;;;12.90;11.27;;;19.10;99.90;;;;;;6204150;28;20204;-80
2021/09/16 01:10:51;;;;;;;13.10;11.70;;;19.10;99.90;;;;;;6208259;28;20200;-80
2021/09/16 01:13:56;;;;;;;13.33;12.03;;;19.10;99.90;;;;;;6203700;28;20193;-80
2021/09/16 01:17:00;;;;;;;12.80;11.53;;;19.20;99.90;;;;;;6204307;28;20225;-80
2021/09/16 01:20:04;;;;;;;11.60;10.40;;;19.20;99.90;;;;;;6203814;28;20193;-80
2021/09/16 01:23:06;;;;;;;13.40;12.03;;;19.20;99.90;;;;;;6203864;28;20220;-80
2021/09/16 01:26:09;;;;;;;13.20;11.97;;;19.20;99.90;;;;;;6204167;28;20204;-80
2021/09/16 01:29:12;;;;;;;13.37;12.07;;;19.20;99.90;;;;;;6205115;28;20204;-80
2021/09/16 01:32:14;;;;;;;17.20;15.47;;;19.30;99.90;;;;;;6203866;28;20204;-80
2021/09/16 01:35:18;;;;;;;14.87;13.37;;;19.50;99.90;;;;;;6219985;28;20219;-80
2021/09/16 01:38:20;;;;;;;13.03;11.53;;;19.70;99.90;;;;;;6220080;28;20197;-80
2021/09/16 01:41:22;;;;;;;12.93;11.63;;;19.80;99.90;;;;;;6204758;28;20272;-80
2021/09/16 01:44:25;;;;;;;14.20;12.50;;;19.80;99.90;;;;;;6220092;28;20243;-80
2021/09/16 01:47:28;;;;;;;13.63;12.33;;;19.80;99.90;;;;;;6203590;28;20736;-80
2021/09/16 01:50:31;;;;;;;15.20;13.07;;;19.80;99.90;;;;;;6204643;28;20265;-79
2021/09/16 01:53:33;;;;;;;15.20;12.70;;;19.90;99.90;;;;;;6182762;28;20256;-80
2021/09/16 01:56:36;;;;;;;13.10;11.70;;;20.00;99.90;;;;;;6199608;28;20221;-80
2021/09/16 01:59:38;;;;;;;12.83;11.60;;;20.10;99.90;;;;;;6199835;28;20549;-80
2021/09/16 02:02:41;;;;;;;16.03;13.93;;;20.10;99.90;;;;;;6199594;28;20587;-80
2021/09/16 02:05:44;;;;;;;15.90;14.10;;;20.20;99.90;;;;;;6199208;28;20201;-80
2021/09/16 02:08:46;;;;;;;15.03;13.53;;;20.30;99.90;;;;;;6199461;28;20213;-80
2021/09/16 02:11:49;;;;;;;15.87;14.33;;;20.30;99.90;;;;;;6199446;28;20229;-80
2021/09/16 02:14:51;;;;;;;13.90;12.60;;;20.30;99.90;;;;;;6200564;28;20196;-80
2021/09/16 02:17:54;;;;;;;12.63;11.40;;;20.30;99.90;;;;;;6200542;28;20205;-80
2021/09/16 02:20:57;;;;;;;12.23;11.13;;;20.20;99.90;;;;;;6199361;28;20232;-80
2021/09/16 02:24:00;;;;;;;13.57;12.30;;;20.20;99.90;;;;;;6215275;28;20698;-80
2021/09/16 02:27:02;;;;;;;14.70;12.87;;;20.10;99.90;;;;;;6200269;28;20244;-80
2021/09/16 02:30:06;;;;;;;16.73;15.03;;;20.00;99.90;;;;;;6215394;28;20201;-80
2021/09/16 02:33:09;;;;;;;15.07;13.57;;;20.00;99.90;;;;;;6198953;28;20197;-80
2021/09/16 02:36:12;;;;;;;15.57;13.83;;;20.00;99.90;;;;;;6215020;28;20220;-80
2021/09/16 02:39:14;;;;;;;13.07;11.63;;;20.10;99.90;;;;;;6200238;28;20204;-80
2021/09/16 02:42:17;;;;;;;13.07;11.87;;;20.10;99.90;;;;;;6200233;28;20683;-80
2021/09/16 02:45:20;;;;;;;13.40;11.50;;;20.20;99.90;;;;;;6199165;28;20192;-80
2021/09/16 02:48:23;;;;;;;12.00;10.90;;;20.20;99.90;;;;;;6215399;28;20280;-80
2021/09/16 02:51:25;;;;;;;13.77;12.33;;;20.30;99.90;;;;;;6199692;28;20197;-80
2021/09/16 02:54:28;;;;;;;12.77;11.47;;;20.30;99.90;;;;;;6198283;28;20190;-80
2021/09/16 02:57:30;;;;;;;11.77;10.57;;;20.30;99.90;;;;;;6182425;28;20237;-80
2021/09/16 03:00:33;;;;;;;11.23;10.20;;;20.30;99.90;;;;;;6198168;28;20198;-80
2021/09/16 03:03:38;;;;;;;14.23;10.93;;;20.30;99.90;;;;;;6181665;28;20695;-80
2021/09/16 03:06:45;;;;;;;12.33;10.60;;;20.30;99.90;;;;;;6190138;28;20205;-80
2021/09/16 03:09:48;;;;;;;10.70;9.60;;;20.30;99.90;;;;;;6181653;28;20197;-80
2021/09/16 03:12:50;;;;;;;10.07;9.07;;;20.30;99.90;;;;;;6197973;28;20684;-80
2021/09/16 03:15:53;;;;;;;10.93;9.83;;;20.30;99.90;;;;;;6198149;28;20201;-80
2021/09/16 03:18:56;;;;;;;10.53;9.40;;;20.30;99.90;;;;;;6198132;28;20228;-80
2021/09/16 03:21:58;;;;;;;10.30;9.20;;;20.30;99.90;;;;;;6206093;28;20545;-80
2021/09/16 03:25:00;;;;;;;10.47;9.37;;;20.20;99.90;;;;;;6192296;28;20229;-80
2021/09/16 03:28:03;;;;;;;13.67;8.73;;;20.20;99.90;;;;;;6197834;28;20339;-80
2021/09/16 03:31:06;;;;;;;11.33;10.10;;;20.20;99.90;;;;;;6197920;28;20252;-80
2021/09/16 03:34:08;;;;;;;12.07;10.80;;;20.20;99.90;;;;;;6198659;28;20271;-80
2021/09/16 03:37:10;;;;;;;10.77;9.77;;;20.10;99.90;;;;;;6213786;28;20220;-80
2021/09/16 03:40:13;;;;;;;11.67;10.57;;;20.10;99.90;;;;;;6198589;28;20197;-80
2021/09/16 03:43:19;;;;;;;8.40;7.60;;;20.10;99.90;;;;;;6213859;28;20189;-80
2021/09/16 03:46:22;;;;;;;10.37;9.33;;;20.10;99.90;;;;;;6197182;28;20296;-80
2021/09/16 03:49:24;;;;;;;10.37;9.37;;;20.10;99.90;;;;;;6197236;28;20193;-80
2021/09/16 03:52:26;;;;;;;9.33;8.43;;;20.10;99.90;;;;;;6213540;28;20197;-80
2021/09/16 03:55:29;;;;;;;9.27;8.30;;;20.00;99.90;;;;;;6198373;28;20189;-80
2021/09/16 03:58:32;;;;;;;10.50;8.40;;;20.00;99.90;;;;;;6200075;28;20193;-80
2021/09/16 04:01:34;;;;;;;9.00;8.20;;;19.90;99.90;;;;;;6196893;28;20592;-80
2021/09/16 04:04:36;;;;;;;11.23;8.50;;;19.90;99.90;;;;;;6180778;28;20205;-80
2021/09/16 04:07:38;;;;;;;10.00;8.40;;;19.80;99.90;;;;;;6213183;28;20204;-80
2021/09/16 04:10:41;;;;;;;9.13;7.93;;;19.80;99.90;;;;;;6212931;28;20707;-80
2021/09/16 04:13:43;;;;;;;10.50;8.73;;;19.70;99.90;;;;;;6196969;28;20244;-80
2021/09/16 04:16:46;;;;;;;9.33;8.37;;;19.70;99.90;;;;;;6195790;28;20692;-80
2021/09/16 04:19:49;;;;;;;10.67;8.60;;;19.70;99.90;;;;;;6182721;28;20205;-80
2021/09/16 04:22:52;;;;;;;10.10;9.10;;;19.70;99.90;;;;;;6196373;28;20755;-80
2021/09/16 04:25:57;;;;;;;10.67;8.33;;;19.70;99.90;;;;;;6180526;28;20696;-80
2021/09/16 04:29:01;;;;;;;8.80;7.70;;;19.70;99.90;;;;;;6196873;28;20198;-80
2021/09/16 04:32:04;;;;;;;8.47;7.57;;;19.70;99.90;;;;;;6212588;28;20547;-80
2021/09/16 04:35:08;;;;;;;7.80;7.03;;;19.70;99.90;;;;;;6197582;28;20264;-80
2021/09/16 04:38:10;;;;;;;8.20;7.40;;;19.70;99.90;;;;;;6188328;28;20257;-80
2021/09/16 04:41:13;;;;;;;7.23;6.53;;;19.60;99.90;;;;;;6176389;28;20710;-80
2021/09/16 04:44:15;;;;;;;6.80;6.20;;;19.60;99.90;;;;;;6196321;28;20239;-80
2021/09/16 04:47:20;;;;;;;7.20;6.47;;;19.60;99.90;;;;;;6196111;28;20201;-80
2021/09/16 04:50:23;;;;;;;6.70;6.10;;;19.50;99.90;;;;;;6196355;28;20262;-80
2021/09/16 04:53:25;;;;;;;6.60;5.50;;;19.50;99.90;;;;;;6195772;28;20256;-80
2021/09/16 04:56:27;;;;;;;6.53;5.47;;;19.40;99.90;;;;;;6197070;28;20626;-80
2021/09/16 04:59:30;;;;;;;6.50;5.90;;;19.40;99.90;;;;;;6196467;28;20189;-80
2021/09/16 05:02:32;;;;;;;5.93;5.43;;;19.50;99.90;;;;;;6195821;28;20649;-80
2021/09/16 05:05:34;;;;;;;6.63;5.03;;;19.50;99.90;;;;;;6195630;28;20227;-80
2021/09/16 05:08:37;;;;;;;5.97;5.37;;;19.50;99.90;;;;;;6197078;28;20201;-80
2021/09/16 05:11:41;;;;;;;5.40;4.90;;;19.50;99.90;;;;;;6179131;28;20233;-80
2021/09/16 05:14:44;;;;;;;5.03;4.60;;;19.50;99.90;;;;;;6185507;28;20200;-80
2021/09/16 05:17:48;;;;;;;5.40;4.90;;;19.50;99.90;;;;;;6195511;28;20223;-79
2021/09/16 05:20:54;;;;;;;5.23;4.67;;;19.50;99.90;;;;;;6195760;28;20200;-80
2021/09/16 05:23:56;;;;;;;5.40;4.90;;;19.50;99.90;;;;;;6195291;28;20324;-80
2021/09/16 05:26:59;;;;;;;4.77;4.30;;;19.50;99.90;;;;;;6181798;28;20201;-80
2021/09/16 05:30:01;;;;;;;4.97;4.47;;;19.50;99.90;;;;;;6200584;28;20233;-79
2021/09/16 05:33:08;;;;;;;5.13;4.73;;;19.40;99.90;;;;;;6199985;28;20284;-80
2021/09/16 05:36:11;;;;;;;6.70;4.23;;;19.50;99.90;;;;;;6201409;28;20312;-80
2021/09/16 05:39:13;;;;;;;5.07;3.87;;;19.40;99.90;;;;;;6199657;28;20193;-79
2021/09/16 05:42:16;;;;;;;4.67;4.13;;;19.40;99.90;;;;;;6199791;28;20200;-79
2021/09/16 05:45:18;;;;;;;4.70;4.30;;;19.40;99.90;;;;;;6183616;28;20200;-79
2021/09/16 05:48:21;;;;;;;4.67;3.83;;;19.40;99.90;;;;;;6199887;28;20284;-79
2021/09/16 05:51:23;;;;;;;4.57;3.97;;;19.40;99.90;;;;;;6199568;28;20280;-79
2021/09/16 05:54:26;;;;;;;6.63;4.17;;;19.40;99.90;;;;;;6183556;28;20363;-79
2021/09/16 05:57:28;;;;;;;6.00;4.20;;;19.40;99.90;;;;;;6216180;28;20213;-79
2021/09/16 06:00:31;;;;;;;4.20;3.80;;;19.40;99.90;;;;;;6199509;28;20271;-79
2021/09/16 06:03:33;;;;;;;3.90;3.47;;;19.40;99.90;;;;;;6199494;28;20215;-79
2021/09/16 06:06:35;;;;;;;5.90;3.83;;;19.50;99.90;;;;;;6199379;28;20201;-79
2021/09/16 06:09:38;;;;;;;3.90;3.60;;;19.50;99.90;;;;;;6199133;28;20201;-79
2021/09/16 06:12:41;;;;;;;4.67;4.13;;;19.60;99.90;;;;;;6199317;28;20573;-79
2021/09/16 06:15:43;;;;;;;4.60;3.90;;;19.70;99.90;;;;;;6195384;28;20573;-79
2021/09/16 06:18:45;;;;;;;4.43;3.43;;;19.80;99.90;;;;;;6200415;28;20228;-79
2021/09/16 06:21:47;;;;;;;7.50;3.83;;;19.90;99.90;;;;;;6199027;28;20236;-79
2021/09/16 06:24:49;;;;;;;5.20;4.33;;;19.90;99.90;;;;;;6198266;28;20851;-79
2021/09/16 06:27:52;;;;;;;5.33;4.00;;;20.00;99.90;;;;;;6198914;28;20194;-79
2021/09/16 06:30:54;;;;;;;4.20;3.80;;;20.00;99.90;;;;;;6199916;28;20255;-79
2021/09/16 06:33:56;;;;;;;4.40;3.90;;;20.10;99.90;;;;;;6214931;28;20574;-79
2021/09/16 06:37:00;;;;;;;4.30;3.70;;;20.10;99.90;;;;;;6182446;28;20688;-79
2021/09/16 06:40:02;;;;;;;4.97;3.67;;;20.20;99.90;;;;;;6197997;28;20197;-79
2021/09/16 06:43:05;;;;;;;4.23;3.63;;;20.30;99.90;;;;;;6182395;28;20668;-79
2021/09/16 06:46:07;;;;;;;4.83;4.00;;;20.40;99.90;;;;;;6198581;28;20334;-79
2021/09/16 06:49:09;;;;;;;4.83;3.57;;;20.50;99.90;;;;;;6182624;28;20205;-79
2021/09/16 06:52:12;;;;;;;4.53;3.70;;;20.60;99.90;;;;;;6206305;28;20277;-79
2021/09/16 06:55:15;;;;;;;4.47;3.40;;;20.70;99.90;;;;;;6214459;28;20494;-79
2021/09/16 06:58:17;;;;;;;5.57;3.80;;;20.70;99.90;;;;;;6214342;28;20241;-79
2021/09/16 07:01:19;;;;;;;5.83;4.10;;;20.70;99.90;;;;;;6181563;28;20190;-79
2021/09/16 07:04:22;;;;;;;5.60;3.80;;;20.70;99.90;;;;;;6197743;28;20588;-79
2021/09/16 07:07:24;;;;;;;9.03;3.87;;;20.70;99.90;;;;;;6214057;28;20193;-79
2021/09/16 07:10:27;;;;;;;4.87;3.63;;;20.80;99.90;;;;;;6199150;28;20634;-79
2021/09/16 07:13:29;;;;;;;4.50;3.30;;;20.90;99.90;;;;;;6197804;28;20204;-79
2021/09/16 07:16:32;;;;;;;5.13;4.10;;;20.90;99.90;;;;;;6197661;28;20573;-79
2021/09/16 07:19:35;;;;;;;4.83;3.70;;;21.00;99.90;;;;;;6197608;28;20331;-79
2021/09/16 07:22:38;;;;;;;4.83;3.67;;;21.10;99.90;;;;;;6198664;28;20325;-79
2021/09/16 07:25:41;;;;;;;5.13;3.70;;;21.10;99.90;;;;;;6197310;28;20237;-79
2021/09/16 07:28:43;;;;;;;5.77;3.40;;;21.20;99.90;;;;;;6181226;28;20232;-79
2021/09/16 07:31:46;;;;;;;3.80;3.40;;;21.30;99.90;;;;;;6197276;28;20232;-79
2021/09/16 07:34:49;;;;;;;9.97;4.23;;;21.40;99.90;;;;;;6197317;28;20280;-79
2021/09/16 07:37:51;;;;;;;7.23;3.83;;;21.50;99.90;;;;;;6197063;28;20220;-80
2021/09/16 07:40:53;;;;;;;6.13;3.53;;;21.70;99.90;;;;;;6213553;28;20582;-79
2021/09/16 07:43:55;;;;;;;6.57;3.50;;;21.90;99.90;;;;;;6196875;28;20192;-79
2021/09/16 07:46:59;;;;;;;4.97;3.50;;;22.00;99.90;;;;;;6196881;28;20707;-79
2021/09/16 07:50:03;;;;;;;4.00;3.63;;;22.30;99.90;;;;;;6212124;28;20204;-79
2021/09/16 07:53:07;;;;;;;4.30;3.10;;;22.50;99.90;;;;;;6196706;28;20573;-79
2021/09/16 07:56:11;;;;;;;4.70;3.20;;;22.90;99.90;;;;;;6196661;28;20198;-80
2021/09/16 07:59:14;;;;;;;5.63;3.50;;;23.20;99.90;;;;;;6196557;28;20221;-79
2021/09/16 08:02:17;;;;;;;5.03;3.87;;;23.40;99.90;;;;;;6198045;28;20265;-79
2021/09/16 08:05:20;;;;;;;4.57;3.37;;;23.60;99.90;;;;;;6196827;28;20202;-80
2021/09/16 08:08:22;;;;;;;3.60;3.30;;;23.80;99.90;;;;;;6197908;28;20228;-79
2021/09/16 08:11:24;;;;;;;3.97;3.60;;;24.00;99.90;;;;;;6180505;28;20204;-79
2021/09/16 08:14:27;;;;;;;3.87;3.47;;;24.30;99.90;;;;;;6212565;28;20189;-79
2021/09/16 08:17:29;;;;;;;3.93;3.37;;;24.40;99.90;;;;;;6198012;28;20209;-80
2021/09/16 08:20:38;;;;;;;5.10;3.27;;;24.40;99.90;;;;;;6196486;28;20565;-80
2021/09/16 08:23:42;;;;;;;3.93;3.40;;;24.50;99.90;;;;;;6197417;28;20241;-80
2021/09/16 08:26:44;;;;;;;4.60;3.60;;;24.60;99.90;;;;;;6197831;28;20293;-79
2021/09/16 08:29:46;;;;;;;3.43;3.10;;;24.50;99.80;;;;;;6197337;28;20185;-79
2021/09/16 08:32:49;;;;;;;3.87;3.43;;;24.50;99.90;;;;;;6196493;28;20213;-79
2021/09/16 08:35:51;;;;;;;5.27;3.50;;;24.60;98.80;;;;;;6196106;28;20280;-79
2021/09/16 08:38:54;;;;;;;4.00;3.50;;;24.40;98.60;;;;;;6199303;28;20296;-80
2021/09/16 08:41:56;;;;;;;3.37;3.07;;;24.40;98.80;;;;;;6202502;28;20200;-79
2021/09/16 08:44:59;;;;;;;3.42;3.13;;;24.40;98.70;;;;;;6202928;28;20291;-79
2021/09/16 08:48:01;;;;;;;4.20;3.10;;;24.40;98.70;;;;;;6196911;28;20616;-79
2021/09/16 08:51:04;;;;;;;4.67;3.20;;;24.50;98.50;;;;;;6204538;28;20192;-79
2021/09/16 08:54:11;;;;;;;3.30;3.00;;;24.70;99.20;;;;;;6208514;28;20212;-79
2021/09/16 08:57:16;;;;;;;3.28;2.78;;;25.20;98.80;;;;;;6202395;28;20217;-79
2021/09/16 09:00:20;;;;;;;3.65;2.85;;;25.70;97.90;;;;;;6210163;28;20276;-79
2021/09/16 09:03:22;;;;;;;3.33;2.60;;;26.00;96.50;;;;;;6226353;28;20257;-80
2021/09/16 09:06:38;;;;;;;3.05;2.80;;;26.10;95.60;;;;;;6209452;28;20201;-80
2021/09/16 09:09:45;;;;;;;3.78;2.92;;;26.10;95.10;;;;;;6204958;28;20185;-79
2021/09/16 09:12:48;;;;;;;3.35;3.05;;;25.90;94.90;;;;;;6188547;28;20205;-79
2021/09/16 09:16:06;;;;;;;2.80;2.50;;;25.70;95.30;;;;;;6212980;28;20522;-79
2021/09/16 09:19:17;;;;;;;4.32;2.50;;;25.60;95.50;;;;;;6216562;28;20225;-79
2021/09/16 09:22:30;;;;;;;3.42;2.20;;;25.70;95.70;;;;;;6200423;28;20198;-80
2021/09/16 09:25:32;;;;;;;4.35;2.05;;;26.00;94.80;;;;;;6201231;28;20565;-80
2021/09/16 09:28:35;;;;;;;2.85;2.50;;;26.20;94.50;;;;;;6216416;28;20200;-79
2021/09/16 09:31:40;;;;;;;2.40;2.20;;;26.50;94.10;;;;;;6177252;28;20190;-79
2021/09/16 09:34:42;;;;;;;5.38;2.35;;;26.80;93.80;;;;;;6197472;28;20200;-79
2021/09/16 09:37:45;;;;;;;3.45;2.20;;;27.00;92.50;;;;;;6213125;28;20216;-79
2021/09/16 09:40:51;;;;;;;4.10;2.50;;;27.00;92.20;;;;;;6199725;28;20202;-79
2021/09/16 09:44:12;;;;;;;2.58;2.38;;;26.90;91.90;;;;;;6199525;28;20325;-79
2021/09/16 09:47:33;;;;;;;2.47;2.28;;;27.00;92.10;;;;;;6183940;28;20201;-79
2021/09/16 09:50:36;;;;;;;4.25;2.35;;;27.10;91.60;;;;;;6199476;28;20574;-80
2021/09/16 09:53:44;;;;;;;2.85;1.98;;;27.40;90.80;;;;;;6199540;28;20557;-80
2021/09/16 09:57:19;;;;;;;2.20;2.00;;;27.80;90.60;;;;;;6202238;28;20201;-79
2021/09/16 10:00:24;;;;;;;7.15;2.10;;;28.00;87.70;;;;;;6199683;28;20529;-79
2021/09/16 10:03:28;;;;;;;2.13;1.92;;;28.20;87.10;;;;;;6199162;28;20198;-79
2021/09/16 10:06:35;;;;;;;2.83;2.13;;;28.00;84.20;;;;;;6199333;28;20202;-79
2021/09/16 10:09:38;;;;;;;3.05;2.28;;;27.70;84.00;;;;;;6199299;28;20193;-79
2021/09/16 10:12:42;;;;;;;3.80;2.10;;;27.70;85.00;;;;;;6181597;28;20637;-79
2021/09/16 10:15:52;;;;;;;2.42;2.00;;;28.10;85.40;;;;;;6215086;28;20288;-79
2021/09/16 10:18:54;;;;;;;4.55;2.17;;;28.50;85.00;;;;;;6200071;28;20675;-79
2021/09/16 10:21:57;;;;;;;4.40;1.90;;;28.50;82.60;;;;;;6177511;28;20584;-79
2021/09/16 10:25:00;;;;;;;4.32;2.38;;;28.20;81.40;;;;;;6214686;28;20244;-80
2021/09/16 10:28:05;;;;;;;4.13;2.20;;;27.60;80.80;;;;;;6199898;28;20224;-79
2021/09/16 10:31:20;;;;;;;3.58;2.15;;;27.10;82.90;;;;;;6199106;28;20204;-79
2021/09/16 10:34:44;;;;;;;2.55;2.35;;;27.10;84.30;;;;;;6182669;28;20198;-79
2021/09/16 10:37:47;;;;;;;2.47;2.00;;;27.20;84.40;;;;;;6198426;28;20232;-79
2021/09/16 10:41:11;;;;;;;2.72;2.20;;;27.40;85.10;;;;;;6198812;28;20209;-79
2021/09/16 10:44:19;;;;;;;4.18;2.17;;;27.50;85.20;;;;;;6214813;28;20186;-78
2021/09/16 10:47:23;;;;;;;2.60;2.10;;;27.70;85.30;;;;;;6182454;28;20623;-79
2021/09/16 10:50:26;;;;;;;6.50;2.42;;;27.60;83.80;;;;;;6198112;28;20213;-79
2021/09/16 10:53:47;;;;;;;3.15;2.58;;;27.60;84.10;;;;;;6198268;28;20255;-79
2021/09/16 10:57:12;;;;;;;2.35;2.15;;;27.40;84.70;;;;;;6197958;28;20209;-79
2021/09/16 11:00:19;;;;;;;5.35;2.83;;;27.40;87.50;;;;;;6199607;28;20243;-79
2021/09/16 11:03:22;;;;;;;4.72;2.28;;;27.80;87.20;;;;;;6197925;28;20285;-79
2021/09/16 11:06:54;;;;;;;3.17;2.08;;;28.30;84.50;;;;;;6214120;28;20213;-79
2021/09/16 11:10:21;;;;;;;2.40;2.20;;;28.60;82.00;;;;;;6193776;28;20198;-79
2021/09/16 11:13:30;;;;;;;3.13;2.15;;;28.80;82.60;;;;;;6213722;28;20684;-79
2021/09/16 11:16:32;;;;;;;2.95;2.40;;;28.90;80.30;;;;;;6198964;28;20193;-79
2021/09/16 11:19:50;;;;;;;2.88;2.58;;;28.90;80.70;;;;;;6198584;28;20549;-79
2021/09/16 11:22:53;;;;;;;2.55;2.35;;;28.70;79.60;;;;;;6213584;28;20241;-79
2021/09/16 11:25:56;;;;;;;4.85;2.22;;;28.50;79.40;;;;;;6196847;28;20225;-79
2021/09/16 11:29:11;;;;;;;4.13;2.30;;;28.10;80.10;;;;;;6213716;28;20221;-79
2021/09/16 11:32:15;;;;;;;4.30;2.20;;;28.00;81.10;;;;;;6173318;28;20178;-79
2021/09/16 11:35:19;;;;;;;2.92;2.28;;;28.00;81.00;;;;;;6194234;28;20202;-79
2021/09/16 11:38:22;;;;;;;6.30;2.38;;;28.20;82.40;;;;;;6197235;28;20283;-79
2021/09/16 11:41:27;;;;;;;2.42;2.22;;;28.40;81.00;;;;;;6198204;28;20564;-79
2021/09/16 11:44:32;;;;;;;5.15;2.42;;;28.70;80.60;;;;;;6181497;28;20617;-79
2021/09/16 11:47:47;;;;;;;4.35;2.50;;;29.00;80.60;;;;;;6198259;28;20557;-79
2021/09/16 11:50:58;;;;;;;4.53;2.38;;;29.30;77.60;;;;;;6180938;28;20202;-79
2021/09/16 11:54:09;;;;;;;3.92;2.38;;;29.30;76.90;;;;;;6180750;28;20236;-79
2021/09/16 11:57:12;;;;;;;3.03;2.20;;;29.10;77.30;;;;;;6213099;28;20284;-79
2021/09/16 12:00:38;;;;;;;4.63;2.65;;;28.80;78.40;;;;;;6197978;28;20213;-79
2021/09/16 12:03:43;;;;;;;4.97;2.80;;;28.90;79.30;;;;;;6156639;28;20194;-79
2021/09/16 12:06:55;;;;;;;2.40;2.15;;;29.00;77.70;;;;;;6196797;28;20194;-79
2021/09/16 12:10:01;;;;;;;3.63;2.47;;;29.50;79.20;;;;;;6174186;28;20205;-79
2021/09/16 12:13:05;;;;;;;8.80;2.38;;;30.00;74.90;;;;;;6176241;28;20221;-79
2021/09/16 12:16:14;;;;;;;2.75;2.40;;;30.00;73.30;;;;;;6212698;28;20212;-79
2021/09/16 12:19:17;;;;;;;2.53;2.10;;;29.50;73.50;;;;;;6196272;28;20622;-79
2021/09/16 12:22:19;;;;;;;2.25;2.10;;;29.30;73.60;;;;;;6196591;28;20192;-79
2021/09/16 12:25:22;;;;;;;3.90;1.90;;;29.00;74.00;;;;;;6212148;28;20241;-79
2021/09/16 12:28:26;;;;;;;3.60;1.80;;;28.80;75.90;;;;;;6196344;28;20391;-79
2021/09/16 12:31:37;;;;;;;3.20;2.00;;;28.80;76.40;;;;;;6179873;28;20566;-79
2021/09/16 12:34:43;;;;;;;2.85;1.92;;;28.60;75.70;;;;;;6179743;28;20201;-78
2021/09/16 12:37:45;;;;;;;3.42;2.10;;;29.10;75.80;;;;;;6211533;28;20202;-79
2021/09/16 12:40:48;;;;;;;2.60;1.80;;;29.80;74.20;;;;;;6211918;28;20195;-79
2021/09/16 12:44:05;;;;;;;2.80;1.85;;;30.40;70.50;;;;;;6197117;28;20192;-79
2021/09/16 12:47:14;;;;;;;2.53;1.45;;;31.00;69.50;;;;;;6212187;28;20229;-79
2021/09/16 12:50:18;;;;;;;2.70;1.60;;;31.10;67.90;;;;;;6187479;28;20570;-79
2021/09/16 12:53:20;;;;;;;2.65;1.77;;;31.30;66.00;;;;;;6201184;28;20649;-79
2021/09/16 12:56:28;;;;;;;3.13;1.60;;;31.60;62.80;;;;;;6195720;28;20202;-79
2021/09/16 12:59:31;;;;;;;2.55;1.70;;;32.00;61.70;;;;;;6195788;28;20546;-79
2021/09/16 13:03:02;;;;;;;3.00;2.00;;;32.50;61.10;;;;;;6196755;28;20217;-79
2021/09/16 13:06:14;;;;;;;2.28;1.75;;;32.90;58.70;;;;;;6195748;28;20197;-80
2021/09/16 13:09:34;;;;;;;1.98;1.65;;;33.10;58.20;;;;;;6195532;28;20335;-80
2021/09/16 13:12:51;;;;;;;4.70;1.40;;;33.20;56.60;;;;;;6179854;28;20653;-79
2021/09/16 13:15:55;;;;;;;2.85;1.50;;;33.40;57.20;;;;;;6195981;28;20190;-79
2021/09/16 13:19:04;;;;;;;2.85;1.58;;;33.80;56.20;;;;;;6195507;28;20267;-79
2021/09/16 13:22:25;;;;;;;1.70;1.58;;;34.20;54.20;;;;;;6199197;28;20189;-79
2021/09/16 13:25:28;;;;;;;2.75;1.60;;;34.30;53.10;;;;;;6196641;28;20233;-79
2021/09/16 13:28:31;;;;;;;2.47;2.00;;;34.30;54.10;;;;;;6211917;28;20685;-80
2021/09/16 13:31:33;;;;;;;1.48;1.33;;;34.70;53.40;;;;;;6211544;28;20197;-79
2021/09/16 13:34:36;;;;;;;1.60;1.50;;;35.00;52.10;;;;;;6211926;28;20615;-80
2021/09/16 13:37:39;;;;;;;1.80;1.48;;;34.90;51.30;;;;;;6179315;28;20197;-79
2021/09/16 13:40:42;;;;;;;1.80;1.70;;;34.30;52.60;;;;;;6195650;28;20201;-80
2021/09/16 13:43:44;;;;;;;3.15;1.55;;;34.10;52.10;;;;;;6195634;28;20192;-79
2021/09/16 13:46:48;;;;;;;1.55;1.40;;;34.40;51.20;;;;;;6187643;28;20288;-80
2021/09/16 13:49:50;;;;;;;3.70;1.75;;;34.80;51.00;;;;;;6215410;28;20181;-79
2021/09/16 13:52:53;;;;;;;2.50;1.70;;;34.60;50.50;;;;;;6203873;28;20204;-79
2021/09/16 13:55:55;;;;;;;2.08;1.40;;;34.40;50.90;;;;;;6228466;28;20567;-79
2021/09/16 13:58:58;;;;;;;2.10;1.50;;;34.20;51.20;;;;;;6212753;28;20743;-79
2021/09/16 14:02:00;;;;;;;1.25;1.15;;;34.00;50.60;;;;;;6210506;28;20209;-79
2021/09/16 14:05:05;;;;;;;1.85;1.50;;;33.90;51.30;;;;;;6204237;28;20193;-79
2021/09/16 14:08:07;;;;;;;2.20;1.25;;;33.50;51.00;;;;;;6184766;28;20665;-79
2021/09/16 14:11:10;;;;;;;2.45;1.60;;;33.00;52.60;;;;;;6200835;28;20272;-79
2021/09/16 14:14:12;;;;;;;4.78;1.50;;;32.40;52.90;;;;;;6200455;28;20579;-79
2021/09/16 14:17:14;;;;;;;2.22;1.40;;;31.90;53.90;;;;;;6199216;28;20276;-79
2021/09/16 14:20:19;;;;;;;2.25;1.38;;;31.40;54.80;;;;;;6195646;28;20213;-80
2021/09/16 14:23:22;;;;;;;2.10;1.35;;;30.90;55.30;;;;;;6188743;28;20213;-79
2021/09/16 14:26:24;;;;;;;1.60;1.48;;;30.40;57.50;;;;;;6199048;28;20586;-79
2021/09/16 14:29:27;;;;;;;4.32;1.70;;;30.00;59.20;;;;;;6201195;28;20190;-79
2021/09/16 14:32:29;;;;;;;3.75;1.83;;;29.70;60.60;;;;;;6182558;28;20292;-79
2021/09/16 14:35:32;;;;;;;1.92;1.20;;;29.40;61.30;;;;;;6198802;28;20217;-79
2021/09/16 14:38:35;;;;;;;2.97;1.88;;;29.20;61.80;;;;;;6198687;28;20223;-79
2021/09/16 14:41:38;;;;;;;2.67;1.52;;;28.90;64.00;;;;;;6198823;28;20189;-80
2021/09/16 14:44:40;;;;;;;2.17;1.67;;;28.70;67.00;;;;;;6198814;28;20229;-79
2021/09/16 14:47:43;;;;;;;2.22;1.63;;;28.50;68.30;;;;;;6190700;28;20272;-79
2021/09/16 14:50:45;;;;;;;3.53;1.50;;;28.30;70.30;;;;;;6187587;28;20336;-80
2021/09/16 14:53:47;;;;;;;2.00;1.75;;;28.20;71.70;;;;;;6198399;28;20193;-79
2021/09/16 14:56:50;;;;;;;3.35;2.17;;;28.00;71.10;;;;;;6198328;28;20201;-79
2021/09/16 14:59:52;;;;;;;4.03;2.75;;;27.90;71.20;;;;;;6197847;28;20635;-79
2021/09/16 15:02:55;;;;;;;4.80;3.45;;;27.80;69.40;;;;;;6197881;28;20224;-79
2021/09/16 15:05:58;;;;;;;4.28;3.33;;;27.60;69.00;;;;;;6198043;28;20197;-79
2021/09/16 15:09:01;;;;;;;6.57;3.35;;;27.50;70.40;;;;;;6198008;28;20598;-79
2021/09/16 15:12:04;;;;;;;3.75;3.45;;;27.10;71.70;;;;;;6182025;28;20194;-79
2021/09/16 15:15:07;;;;;;;5.93;3.38;;;27.00;72.20;;;;;;6173586;28;20198;-79
2021/09/16 15:18:09;;;;;;;4.68;3.90;;;26.90;73.80;;;;;;6186052;28;20661;-79
2021/09/16 15:21:12;;;;;;;5.32;4.00;;;26.90;75.30;;;;;;6197666;28;20201;-80
2021/09/16 15:24:14;;;;;;;5.25;3.60;;;26.80;76.40;;;;;;6213541;28;20245;-79
2021/09/16 15:27:17;;;;;;;3.88;3.40;;;26.90;78.10;;;;;;6181502;28;20256;-79
2021/09/16 15:30:20;;;;;;;3.85;3.55;;;26.80;79.00;;;;;;6197399;28;20201;-79
2021/09/16 15:33:22;;;;;;;4.70;3.35;;;26.70;80.70;;;;;;6189494;28;20201;-79
2021/09/16 15:36:24;;;;;;;3.83;3.53;;;26.50;82.10;;;;;;6192292;28;20197;-80
2021/09/16 15:39:28;;;;;;;4.30;3.10;;;26.50;83.10;;;;;;6213341;28;20595;-79
2021/09/16 15:42:30;;;;;;;4.03;2.78;;;26.50;84.60;;;;;;6213620;28;20204;-79
2021/09/16 15:45:35;;;;;;;3.50;2.58;;;26.30;85.30;;;;;;6196939;28;20208;-79
2021/09/16 15:48:37;;;;;;;3.45;2.70;;;26.10;86.50;;;;;;6196996;28;20201;-79
2021/09/16 15:51:39;;;;;;;3.50;2.78;;;26.00;87.60;;;;;;6196976;28;20197;-79
2021/09/16 15:54:45;;;;;;;3.17;2.88;;;25.90;88.20;;;;;;6196910;28;20256;-79